createdAt,value
2018-04-13T00:01:42.607Z,20.77
2018-04-13T00:04:13.347Z,18.53
2018-04-13T00:06:43.937Z,18.93
2018-04-13T00:09:14.719Z,18.33
2018-04-13T00:11:45.035Z,19.43
2018-04-13T00:14:14.857Z,19.27
2018-04-13T00:16:45.269Z,17.87
2018-04-13T00:19:16.127Z,18.53
2018-04-13T00:21:47.151Z,17.77
2018-04-13T00:24:18.242Z,16.70
2018-04-13T00:26:48.942Z,17.80
2018-04-13T00:29:19.654Z,19.23
2018-04-13T00:31:50.512Z,19.23
2018-04-13T00:34:21.449Z,21.10
2018-04-13T00:36:52.191Z,19.37
2018-04-13T00:39:23.244Z,20.27
2018-04-13T00:41:54.531Z,20.13
2018-04-13T00:44:24.646Z,21.27
2018-04-13T00:46:55.359Z,20.53
2018-04-13T00:49:25.932Z,22.23
2018-04-13T00:51:56.345Z,20.57
2018-04-13T00:54:27.073Z,20.83
2018-04-13T00:56:57.437Z,20.67
2018-04-13T00:59:28.131Z,20.10
2018-04-13T01:01:58.819Z,21.97
2018-04-13T01:04:29.396Z,19.93
2018-04-13T01:06:59.352Z,19.83
2018-04-13T01:09:30.696Z,21.20
2018-04-13T01:12:00.618Z,22.73
2018-04-13T01:14:31.623Z,23.30
2018-04-13T01:17:02.590Z,21.37
2018-04-13T01:19:33.137Z,20.47
2018-04-13T01:22:04.039Z,19.80
2018-04-13T01:24:35.050Z,18.50
2018-04-13T01:27:05.814Z,22.27
2018-04-13T01:29:36.504Z,21.00
2018-04-13T01:32:07.001Z,22.27
2018-04-13T01:34:37.847Z,23.13
2018-04-13T01:37:08.838Z,21.33
2018-04-13T01:39:39.819Z,22.03
2018-04-13T01:42:10.218Z,21.77
2018-04-13T01:44:41.373Z,22.50
2018-04-13T01:47:11.664Z,23.30
2018-04-13T01:49:42.256Z,21.80
2018-04-13T01:52:13.597Z,23.07
2018-04-13T01:54:43.907Z,21.23
2018-04-13T01:57:14.568Z,25.27
2018-04-13T01:59:45.408Z,26.53
2018-04-13T02:02:15.314Z,24.00
2018-04-13T02:04:46.184Z,23.47
2018-04-13T02:07:16.575Z,23.83
2018-04-13T02:09:47.909Z,22.73
2018-04-13T02:12:18.505Z,22.73
2018-04-13T02:14:49.862Z,21.60
2018-04-13T02:17:20.771Z,23.10
2018-04-13T02:19:51.610Z,22.50
2018-04-13T02:22:22.181Z,23.93
2018-04-13T02:24:52.742Z,21.20
2018-04-13T02:27:23.308Z,21.70
2018-04-13T02:29:54.428Z,22.33
2018-04-13T02:32:24.912Z,24.00
2018-04-13T02:34:55.579Z,24.10
2018-04-13T02:37:26.520Z,26.33
2018-04-13T02:39:57.013Z,26.37
2018-04-13T02:42:27.445Z,25.33
2018-04-13T02:44:57.979Z,30.70
2018-04-13T02:47:28.446Z,32.13
2018-04-13T02:49:58.960Z,32.37
2018-04-13T02:52:29.477Z,29.77
2018-04-13T02:55:00.133Z,29.07
2018-04-13T02:57:30.939Z,27.07
2018-04-13T03:00:01.746Z,28.07
2018-04-13T03:02:32.614Z,27.03
2018-04-13T03:05:03.007Z,26.30
2018-04-13T03:07:33.908Z,28.37
2018-04-13T03:10:04.591Z,25.30
2018-04-13T03:12:34.890Z,27.80
2018-04-13T03:15:05.646Z,33.77
2018-04-13T03:17:36.186Z,27.57
2018-04-13T03:20:06.770Z,25.73
2018-04-13T03:22:36.654Z,26.03
2018-04-13T03:25:07.450Z,24.33
2018-04-13T03:27:38.000Z,23.80
2018-04-13T03:30:08.243Z,23.00
2018-04-13T03:32:38.649Z,21.60
2018-04-13T03:35:09.476Z,23.93
2018-04-13T03:37:39.902Z,24.80
2018-04-13T03:40:10.573Z,27.60
2018-04-13T03:42:41.782Z,37.80
2018-04-13T03:45:12.135Z,25.37
2018-04-13T03:47:43.056Z,26.03
2018-04-13T03:50:13.405Z,26.53
2018-04-13T03:52:44.802Z,28.70
2018-04-13T03:55:15.404Z,23.87
2018-04-13T03:57:45.704Z,27.23
2018-04-13T04:00:16.901Z,25.10
2018-04-13T04:02:47.490Z,31.53
2018-04-13T04:05:17.938Z,27.17
2018-04-13T04:07:49.145Z,28.03
2018-04-13T04:10:19.657Z,26.00
2018-04-13T04:12:50.092Z,25.93
2018-04-13T04:15:20.715Z,25.67
2018-04-13T04:17:51.698Z,26.57
2018-04-13T04:20:34.299Z,27.13
2018-04-13T04:23:16.102Z,27.03
2018-04-13T04:25:54.106Z,27.53
2018-04-13T04:28:23.910Z,30.10
2018-04-13T04:30:53.741Z,28.63
2018-04-13T04:33:23.619Z,29.63
2018-04-13T04:35:54.292Z,28.53
2018-04-13T04:38:24.294Z,29.83
2018-04-13T04:40:54.106Z,29.43
2018-04-13T04:43:24.025Z,27.63
2018-04-13T04:45:54.029Z,26.83
2018-04-13T04:48:23.852Z,27.83
2018-04-13T04:50:53.656Z,27.07
2018-04-13T04:53:23.530Z,31.80
2018-04-13T04:55:53.383Z,29.03
2018-04-13T04:58:23.309Z,30.67
2018-04-13T05:00:53.117Z,32.20
2018-04-13T05:03:23.032Z,31.80
2018-04-13T05:05:52.947Z,34.43
2018-04-13T05:08:22.861Z,33.27
2018-04-13T05:10:52.777Z,33.57
2018-04-13T05:13:22.599Z,32.13
2018-04-13T05:15:52.508Z,32.17
2018-04-13T05:18:22.385Z,31.37
2018-04-13T05:20:52.341Z,32.60
2018-04-13T05:23:22.164Z,31.67
2018-04-13T05:25:52.066Z,32.73
2018-04-13T05:28:21.877Z,32.83
2018-04-13T05:30:51.994Z,33.90
2018-04-13T05:33:22.014Z,31.57
2018-04-13T05:35:51.928Z,30.20
2018-04-13T05:38:21.851Z,30.17
2018-04-13T05:40:51.668Z,30.90
2018-04-13T05:43:21.579Z,29.23
2018-04-13T05:45:51.396Z,31.03
2018-04-13T05:48:21.200Z,29.03
2018-04-13T05:50:51.012Z,29.50
2018-04-13T05:53:20.932Z,28.57
2018-04-13T05:55:50.847Z,28.23
2018-04-13T05:58:20.669Z,29.87
2018-04-13T06:00:50.580Z,26.70
2018-04-13T06:03:20.381Z,26.90
2018-04-13T06:05:50.299Z,25.90
2018-04-13T06:08:20.111Z,27.30
2018-04-13T06:10:49.922Z,27.20
2018-04-13T06:13:19.971Z,26.87
2018-04-13T06:15:49.869Z,26.87
2018-04-13T06:18:19.773Z,26.30
2018-04-13T06:20:49.894Z,27.63
2018-04-13T06:23:19.711Z,27.20
2018-04-13T06:25:49.519Z,25.57
2018-04-13T06:28:19.325Z,27.33
2018-04-13T06:30:49.145Z,28.70
2018-04-13T06:33:18.957Z,27.33
2018-04-13T06:35:48.773Z,28.33
2018-04-13T06:38:18.789Z,26.57
2018-04-13T06:40:48.596Z,27.93
2018-04-13T06:43:19.537Z,25.23
2018-04-13T06:45:49.348Z,26.57
2018-04-13T06:48:19.159Z,25.63
2018-04-13T06:50:48.979Z,26.47
2018-04-13T06:53:19.820Z,27.57
2018-04-13T06:55:49.754Z,27.23
2018-04-13T06:58:19.505Z,28.07
2018-04-13T07:00:49.571Z,27.63
2018-04-13T07:03:19.470Z,26.70
2018-04-13T07:05:49.387Z,26.50
2018-04-13T07:08:19.225Z,26.20
2018-04-13T07:10:49.130Z,26.67
2018-04-13T07:13:18.929Z,26.57
2018-04-13T07:15:48.858Z,26.17
2018-04-13T07:18:18.675Z,26.13
2018-04-13T07:20:48.576Z,26.13
2018-04-13T07:23:18.400Z,26.37
2018-04-13T07:25:48.800Z,25.23
2018-04-13T07:28:18.692Z,26.40
2018-04-13T07:30:48.550Z,25.33
2018-04-13T07:33:18.351Z,25.13
2018-04-13T07:35:48.165Z,27.23
2018-04-13T07:38:17.986Z,26.17
2018-04-13T07:40:47.995Z,25.77
2018-04-13T07:43:18.029Z,26.07
2018-04-13T07:45:47.926Z,24.47
2018-04-13T07:48:18.210Z,26.00
2018-04-13T07:50:47.763Z,26.10
2018-04-13T07:53:17.588Z,25.10
2018-04-13T07:55:47.487Z,25.47
2018-04-13T07:58:17.405Z,24.83
2018-04-13T08:00:47.231Z,26.13
2018-04-13T08:03:17.140Z,26.33
2018-04-13T08:05:47.165Z,25.37
2018-04-13T08:08:16.970Z,24.13
2018-04-13T08:10:46.986Z,26.23
2018-04-13T08:13:16.911Z,27.63
2018-04-13T08:15:46.997Z,24.43
2018-04-13T08:18:16.825Z,26.10
2018-04-13T08:20:46.850Z,26.00
2018-04-13T08:23:16.875Z,26.43
2018-04-13T08:25:46.775Z,24.63
2018-04-13T08:28:16.590Z,25.10
2018-04-13T08:30:46.414Z,23.13
2018-04-13T08:33:16.247Z,23.67
2018-04-13T08:35:46.273Z,24.43
2018-04-13T08:38:16.206Z,24.70
2018-04-13T08:40:46.115Z,25.20
2018-04-13T08:43:16.637Z,24.63
2018-04-13T08:45:46.434Z,25.47
2018-04-13T08:48:16.230Z,25.53
2018-04-13T08:50:46.039Z,25.07
2018-04-13T08:53:15.925Z,24.07
2018-04-13T08:55:45.785Z,24.67
2018-04-13T08:58:15.805Z,21.40
2018-04-13T09:00:45.816Z,21.17
2018-04-13T09:03:16.409Z,21.10
2018-04-13T09:05:46.350Z,20.77
2018-04-13T09:08:16.169Z,20.20
2018-04-13T09:10:45.967Z,18.83
2018-04-13T09:13:15.893Z,18.80
2018-04-13T09:15:45.798Z,20.70
2018-04-13T09:18:15.718Z,20.37
2018-04-13T09:20:45.602Z,21.40
2018-04-13T09:23:15.446Z,21.00
2018-04-13T09:25:45.369Z,21.93
2018-04-13T09:28:15.173Z,21.03
2018-04-13T09:30:44.987Z,20.67
2018-04-13T09:33:14.808Z,21.83
2018-04-13T09:35:44.736Z,22.43
2018-04-13T09:38:14.642Z,22.67
2018-04-13T09:40:44.443Z,22.03
2018-04-13T09:43:14.223Z,21.57
2018-04-13T09:45:44.090Z,21.20
2018-04-13T09:48:13.887Z,21.80
2018-04-13T09:50:43.692Z,23.27
2018-04-13T09:53:14.661Z,23.70
2018-04-13T09:55:44.653Z,24.77
2018-04-13T09:58:14.568Z,24.17
2018-04-13T10:00:45.205Z,24.23
2018-04-13T10:03:21.155Z,30.77
2018-04-13T10:05:51.076Z,27.07
2018-04-13T10:08:20.881Z,25.83
2018-04-13T10:10:50.697Z,27.87
2018-04-13T10:13:20.527Z,26.63
2018-04-13T10:15:51.355Z,24.97
2018-04-13T10:18:21.348Z,26.13
2018-04-13T10:20:52.094Z,30.03
2018-04-13T10:23:21.927Z,27.10
2018-04-13T10:25:51.837Z,24.47
2018-04-13T10:28:22.466Z,20.03
2018-04-13T10:30:52.269Z,21.47
2018-04-13T10:33:22.293Z,17.47
2018-04-13T10:35:52.202Z,18.87
2018-04-13T10:38:22.128Z,22.10
2018-04-13T10:40:51.944Z,20.00
2018-04-13T10:43:21.852Z,18.67
2018-04-13T10:45:51.866Z,22.07
2018-04-13T10:48:21.781Z,29.43
2018-04-13T10:50:51.699Z,30.70
2018-04-13T10:53:21.504Z,28.30
2018-04-13T10:55:51.430Z,34.77
2018-04-13T10:58:21.449Z,25.10
2018-04-13T11:00:51.357Z,22.20
2018-04-13T11:03:21.287Z,22.70
2018-04-13T11:05:51.193Z,21.60
2018-04-13T11:08:21.005Z,22.60
2018-04-13T11:10:51.947Z,29.43
2018-04-13T11:13:22.060Z,36.97
2018-04-13T11:15:52.090Z,31.43
2018-04-13T11:18:26.195Z,30.30
2018-04-13T11:20:56.117Z,40.60
2018-04-13T11:23:25.926Z,36.87
2018-04-13T11:25:55.846Z,37.43
2018-04-13T11:28:25.747Z,34.27
2018-04-13T11:30:55.560Z,40.33
2018-04-13T11:33:25.502Z,28.97
2018-04-13T11:35:55.289Z,25.37
2018-04-13T11:38:25.205Z,32.23
2018-04-13T11:40:55.022Z,25.20
2018-04-13T11:43:24.929Z,25.93
2018-04-13T11:45:54.850Z,22.70
2018-04-13T11:48:24.851Z,18.33
2018-04-13T11:50:54.688Z,17.63
2018-04-13T11:53:25.082Z,17.40
2018-04-13T11:55:55.031Z,17.17
2018-04-13T11:58:26.267Z,15.97
2018-04-13T12:00:56.090Z,17.77
2018-04-13T12:03:25.897Z,15.40
2018-04-13T12:05:55.822Z,12.57
2018-04-13T12:08:25.724Z,11.93
2018-04-13T12:10:55.538Z,12.20
2018-04-13T12:13:25.584Z,12.00
2018-04-13T12:15:55.486Z,12.40
2018-04-13T12:18:25.402Z,11.93
2018-04-13T12:20:55.302Z,11.43
2018-04-13T12:23:25.229Z,10.87
2018-04-13T12:25:55.147Z,10.40
2018-04-13T12:28:25.052Z,10.47
2018-04-13T12:30:54.860Z,9.47
2018-04-13T12:33:24.992Z,10.03
2018-04-13T12:35:54.978Z,10.03
2018-04-13T12:38:24.980Z,9.83
2018-04-13T12:40:54.850Z,9.63
2018-04-13T12:43:25.735Z,8.60
2018-04-13T12:45:55.685Z,9.20
2018-04-13T12:48:25.505Z,9.53
2018-04-13T12:50:55.316Z,8.40
2018-04-13T12:53:25.147Z,9.70
2018-04-13T12:55:55.105Z,9.70
2018-04-13T12:58:25.688Z,9.20
2018-04-13T13:00:55.753Z,10.13
2018-04-13T13:03:25.832Z,9.27
2018-04-13T13:05:55.729Z,8.30
2018-04-13T13:08:25.539Z,8.53
2018-04-13T13:10:55.450Z,9.17
2018-04-13T13:13:25.266Z,8.53
2018-04-13T13:15:55.184Z,8.70
2018-04-13T13:18:25.103Z,8.40
2018-04-13T13:20:55.124Z,9.50
2018-04-13T13:23:25.032Z,8.17
2018-04-13T13:25:54.974Z,8.30
2018-04-13T13:28:24.867Z,8.57
2018-04-13T13:30:54.683Z,7.83
2018-04-13T13:33:24.692Z,7.47
2018-04-13T13:35:54.512Z,8.23
2018-04-13T13:38:24.423Z,10.23
2018-04-13T13:40:54.302Z,8.90
2018-04-13T13:43:24.131Z,8.40
2018-04-13T13:45:54.189Z,8.40
2018-04-13T13:48:23.982Z,8.03
2018-04-13T13:50:53.897Z,8.43
2018-04-13T13:53:23.704Z,8.40
2018-04-13T13:55:53.498Z,8.57
2018-04-13T13:58:23.331Z,8.70
2018-04-13T14:00:53.149Z,8.47
2018-04-13T14:03:22.966Z,8.93
2018-04-13T14:05:52.768Z,8.63
2018-04-13T14:08:22.586Z,9.53
2018-04-13T14:10:52.399Z,9.83
2018-04-13T14:13:22.318Z,10.70
2018-04-13T14:15:52.129Z,9.73
2018-04-13T14:18:22.051Z,11.20
2018-04-13T14:20:51.961Z,12.93
2018-04-13T14:23:21.776Z,13.37
2018-04-13T14:25:51.600Z,11.90
2018-04-13T14:28:21.394Z,10.07
2018-04-13T14:30:51.208Z,9.90
2018-04-13T14:33:20.925Z,9.50
2018-04-13T14:38:26.800Z,10.00
2018-04-13T14:40:56.618Z,9.57
2018-04-13T14:43:27.135Z,8.17
2018-04-13T14:45:57.063Z,9.23
2018-04-13T14:48:26.866Z,8.73
2018-04-13T14:50:56.708Z,9.67
2018-04-13T14:53:26.497Z,8.97
2018-04-13T14:55:56.481Z,9.87
2018-04-13T14:58:26.319Z,9.00
2018-04-13T15:00:56.142Z,8.87
2018-04-13T15:03:25.929Z,9.10
2018-04-13T15:05:55.776Z,8.83
2018-04-13T15:08:25.573Z,9.10
2018-04-13T15:10:55.382Z,8.80
2018-04-13T15:13:25.316Z,9.30
2018-04-13T15:15:55.212Z,9.50
2018-04-13T15:18:25.158Z,8.77
2018-04-13T15:20:55.047Z,9.43
2018-04-13T15:23:24.875Z,9.43
2018-04-13T15:25:54.797Z,9.20
2018-04-13T15:28:24.594Z,9.10
2018-04-13T15:30:54.510Z,9.23
2018-04-13T15:33:24.313Z,8.60
2018-04-13T15:35:54.134Z,9.27
2018-04-13T15:38:24.021Z,8.87
2018-04-13T15:40:53.858Z,8.27
2018-04-13T15:43:24.701Z,9.07
2018-04-13T15:45:54.616Z,9.53
2018-04-13T15:48:24.421Z,8.53
2018-04-13T15:50:54.340Z,8.57
2018-04-13T15:53:24.148Z,9.23
2018-04-13T15:55:54.063Z,8.83
2018-04-13T15:58:23.880Z,8.50
2018-04-13T16:00:53.690Z,8.53
2018-04-13T16:03:23.825Z,8.80
2018-04-13T16:05:53.634Z,8.53
2018-04-13T16:08:23.445Z,8.53
2018-04-13T16:10:53.249Z,8.90
2018-04-13T16:13:23.083Z,9.03
2018-04-13T16:15:52.888Z,9.30
2018-04-13T16:18:22.696Z,9.37
2018-04-13T16:20:52.567Z,9.47
2018-04-13T16:23:22.424Z,8.30
2018-04-13T16:25:52.267Z,8.43
2018-04-13T16:28:22.145Z,9.53
2018-04-13T16:30:51.959Z,9.33
2018-04-13T16:33:22.037Z,8.90
2018-04-13T16:35:51.904Z,10.57
2018-04-13T16:38:22.020Z,12.10
2018-04-13T16:40:51.932Z,9.80
2018-04-13T16:43:21.844Z,10.27
2018-04-13T16:45:51.678Z,12.37
2018-04-13T16:48:21.458Z,15.50
2018-04-13T16:50:51.282Z,14.57
2018-04-13T16:53:21.103Z,16.07
2018-04-13T16:55:51.117Z,13.37
2018-04-13T16:58:21.033Z,13.97
2018-04-13T17:00:50.941Z,12.73
2018-04-13T17:03:20.759Z,11.57
2018-04-13T17:05:50.680Z,12.10
2018-04-13T17:08:20.489Z,12.77
2018-04-13T17:10:50.285Z,12.70
2018-04-13T17:13:20.223Z,11.83
2018-04-13T17:15:50.126Z,12.10
2018-04-13T17:18:19.942Z,11.40
2018-04-13T17:20:49.961Z,13.10
2018-04-13T17:23:19.880Z,12.60
2018-04-13T17:25:49.810Z,12.93
2018-04-13T17:28:19.680Z,12.30
2018-04-13T17:30:49.520Z,11.70
2018-04-13T17:33:19.330Z,11.60
2018-04-13T17:35:49.140Z,11.77
2018-04-13T17:38:18.963Z,11.50
2018-04-13T17:40:48.872Z,11.93
2018-04-13T17:43:18.687Z,13.03
2018-04-13T17:45:48.599Z,12.87
2018-04-13T17:48:18.427Z,13.03
2018-04-13T17:50:48.325Z,12.93
2018-04-13T17:53:18.154Z,13.43
2018-04-13T17:55:47.951Z,12.40
2018-04-13T17:58:17.874Z,12.47
2018-04-13T18:00:47.791Z,12.80
2018-04-13T18:03:17.596Z,12.80
2018-04-13T18:05:47.516Z,11.73
2018-04-13T18:08:17.433Z,12.40
2018-04-13T18:10:47.248Z,12.97
2018-04-13T18:13:17.075Z,13.03
2018-04-13T18:15:46.968Z,13.40
2018-04-13T18:18:16.788Z,13.23
2018-04-13T18:20:46.704Z,13.60
2018-04-13T18:23:16.611Z,12.40
2018-04-13T18:25:46.429Z,12.53
2018-04-13T18:28:16.244Z,13.93
2018-04-13T18:30:46.061Z,12.67
2018-04-13T18:33:15.970Z,12.97
2018-04-13T18:35:45.788Z,13.50
2018-04-13T18:38:15.700Z,12.73
2018-04-13T18:40:45.520Z,13.47
2018-04-13T18:43:15.435Z,13.17
2018-04-13T18:45:45.360Z,12.03
2018-04-13T18:48:15.253Z,12.30
2018-04-13T18:50:45.074Z,13.03
2018-04-13T18:53:14.896Z,13.13
2018-04-13T18:55:44.978Z,12.93
2018-04-13T18:58:14.828Z,13.13
2018-04-13T19:00:44.747Z,13.67
2018-04-13T19:03:14.544Z,13.27
2018-04-13T19:05:44.555Z,13.60
2018-04-13T19:08:14.376Z,13.57
2018-04-13T19:10:44.189Z,12.77
2018-04-13T19:13:14.102Z,12.93
2018-04-13T19:15:44.295Z,13.50
2018-04-13T19:18:14.041Z,12.03
2018-04-13T19:20:44.062Z,12.53
2018-04-13T19:23:14.081Z,11.87
2018-04-13T19:25:45.943Z,13.17
2018-04-13T19:28:15.857Z,13.83
2018-04-13T19:30:45.769Z,13.17
2018-04-13T19:33:15.690Z,14.20
2018-04-13T19:35:45.497Z,14.10
2018-04-13T19:38:15.543Z,14.00
2018-04-13T19:40:45.440Z,14.00
2018-04-13T19:43:15.352Z,15.47
2018-04-13T19:45:45.326Z,14.80
2018-04-13T19:48:15.287Z,15.70
2018-04-13T19:50:46.120Z,14.60
2018-04-13T19:53:16.029Z,15.17
2018-04-13T19:55:45.858Z,14.40
2018-04-13T19:58:15.970Z,15.03
2018-04-13T20:00:45.780Z,14.87
2018-04-13T20:03:15.811Z,14.40
2018-04-13T20:05:45.925Z,15.17
2018-04-13T20:08:15.720Z,16.17
2018-04-13T20:10:45.543Z,15.27
2018-04-13T20:13:16.184Z,14.27
2018-04-13T20:15:46.611Z,15.43
2018-04-13T20:18:19.692Z,14.60
2018-04-13T20:20:49.607Z,15.57
2018-04-13T20:23:20.284Z,16.13
2018-04-13T20:25:51.292Z,15.27
2018-04-13T20:28:22.221Z,14.40
2018-04-13T20:30:52.963Z,16.60
2018-04-13T20:33:23.462Z,15.43
2018-04-13T20:35:54.010Z,15.67
2018-04-13T20:38:24.796Z,18.40
2018-04-13T20:40:56.012Z,18.13
2018-04-13T20:43:26.111Z,16.93
2018-04-13T20:45:56.435Z,16.93
2018-04-13T20:48:26.773Z,17.93
2018-04-13T20:50:57.289Z,19.67
2018-04-13T20:53:27.712Z,20.20
2018-04-13T20:55:58.117Z,20.73
2018-04-13T20:58:28.653Z,20.33
2018-04-13T21:00:59.355Z,17.27
2018-04-13T21:03:30.178Z,18.00
2018-04-13T21:06:00.266Z,16.67
2018-04-13T21:08:30.863Z,17.87
2018-04-13T21:11:00.912Z,16.20
2018-04-13T21:13:31.096Z,17.20
2018-04-13T21:16:01.679Z,16.40
2018-04-13T21:18:32.362Z,16.77
2018-04-13T21:21:02.960Z,15.93
2018-04-13T21:23:33.538Z,16.20
2018-04-13T21:26:04.261Z,16.20
2018-04-13T21:28:35.102Z,16.80
2018-04-13T21:31:05.416Z,17.07
2018-04-13T21:33:36.011Z,17.50
2018-04-13T21:36:06.424Z,18.10
2018-04-13T21:38:36.945Z,18.67
2018-04-13T21:41:07.277Z,19.83
2018-04-13T21:43:37.181Z,20.73
2018-04-13T21:46:08.067Z,24.20
2018-04-13T21:48:37.936Z,22.10
2018-04-13T21:51:09.082Z,18.43
2018-04-13T21:53:39.835Z,16.83
2018-04-13T21:56:10.408Z,17.00
2018-04-13T21:58:41.386Z,17.03
2018-04-13T22:01:11.913Z,15.93
2018-04-13T22:03:42.313Z,16.70
2018-04-13T22:08:47.498Z,16.80
2018-04-13T22:11:17.308Z,16.23
2018-04-13T22:13:47.352Z,16.47
2018-04-13T22:16:17.859Z,19.20
2018-04-13T22:18:48.307Z,17.83
2018-04-13T22:21:18.100Z,16.67
2018-04-13T22:23:48.421Z,16.47
2018-04-13T22:26:18.335Z,16.43
2018-04-13T22:28:48.719Z,16.70
2018-04-13T22:31:18.474Z,16.43
2018-04-13T22:33:48.286Z,17.77
2018-04-13T22:36:18.102Z,19.17
2018-04-13T22:38:47.961Z,20.67
2018-04-13T22:41:18.237Z,25.20
2018-04-13T22:43:48.368Z,29.50
2018-04-13T22:46:18.174Z,32.17
2018-04-13T22:48:48.709Z,29.57
2018-04-13T22:51:19.024Z,27.90
2018-04-13T22:53:49.353Z,25.40
2018-04-13T22:56:19.333Z,26.60
2018-04-13T22:58:49.647Z,26.07
2018-04-13T23:01:19.513Z,26.07
2018-04-13T23:03:49.319Z,24.73
2018-04-13T23:06:19.263Z,25.13
2018-04-13T23:08:49.148Z,24.30
2018-04-13T23:11:18.975Z,25.20
2018-04-13T23:13:48.779Z,26.80
2018-04-13T23:16:18.597Z,26.90
2018-04-13T23:18:48.606Z,24.73
2018-04-13T23:21:18.419Z,25.73
2018-04-13T23:23:48.771Z,26.50
2018-04-13T23:26:18.556Z,24.23
2018-04-13T23:28:48.368Z,23.67
2018-04-13T23:31:18.191Z,24.30
2018-04-13T23:33:49.021Z,22.27
2018-04-13T23:36:18.832Z,23.73
2018-04-13T23:38:48.645Z,22.40
2018-04-13T23:41:18.561Z,25.23
2018-04-13T23:43:48.485Z,24.67
2018-04-13T23:46:19.214Z,25.10
2018-04-13T23:48:49.022Z,23.60
2018-04-13T23:51:18.847Z,23.60
2018-04-13T23:53:48.754Z,21.70
2018-04-13T23:56:19.181Z,22.57
2018-04-13T23:58:49.203Z,22.57
